McGrath, Alaska
Current Conditions -  °F | °C
As of 3:31 PM on Monday 24 Nov 2014 (Local Time) from PAMC Reporting Station
Light Snow Light Snow  
Wind Chill: 13°   Ceiling: 3000
Heat Index: 13°   Visibility: 1.2mi
Dew Point:   Wind: 0mph
Humidity: 84%   Direction: NA
Pressure: 29.82"   Gusts: NA
Location:  62.96°N, 155.6°W
Report Text: PAMC 250031Z 00000KT 1 1/4SM -SN BR OVC030 M11/M13 A2982 RMK AO2 P0000 T11061128
Loading
Personal Weather Stations






























Interactive Weather Map New forecast layout! Learn more

10-Day Weather Forecast

Advertisements
Track Severe Weather on mobile